Map

Track Data

SID SEASON NUMBER BASIN SUBBASIN NAME ISO_TIME NATURE LAT LON WMO_WIND WMO_PRES WMO_AGENCY TRACK_TYPE DIST2LAND LANDFALL IFLAG USA_AGENCY USA_ATCF_ID USA_LAT USA_LON USA_RECORD USA_STATUS USA_WIND USA_PRES USA_SSHS USA_R34_NE USA_R34_SE USA_R34_SW USA_R34_NW USA_R50_NE USA_R50_SE USA_R50_SW USA_R50_NW USA_R64_NE USA_R64_SE USA_R64_SW USA_R64_NW USA_POCI USA_ROCI USA_RMW USA_EYE TOKYO_LAT TOKYO_LON TOKYO_GRADE TOKYO_WIND TOKYO_PRES TOKYO_R50_DIR TOKYO_R50_LONG TOKYO_R50_SHORT TOKYO_R30_DIR TOKYO_R30_LONG TOKYO_R30_SHORT TOKYO_LAND CMA_LAT CMA_LON CMA_CAT CMA_WIND CMA_PRES HKO_LAT HKO_LON HKO_CAT HKO_WIND HKO_PRES NEWDELHI_LAT NEWDELHI_LON NEWDELHI_GRADE NEWDELHI_WIND NEWDELHI_PRES NEWDELHI_CI NEWDELHI_DP NEWDELHI_POCI REUNION_LAT REUNION_LON REUNION_TYPE REUNION_WIND REUNION_PRES REUNION_TNUM REUNION_CI REUNION_RMW REUNION_R34_NE REUNION_R34_SE REUNION_R34_SW REUNION_R34_NW REUNION_R50_NE REUNION_R50_SE REUNION_R50_SW REUNION_R50_NW REUNION_R64_NE REUNION_R64_SE REUNION_R64_SW REUNION_R64_NW BOM_LAT BOM_LON BOM_TYPE BOM_WIND BOM_PRES BOM_TNUM BOM_CI BOM_RMW BOM_R34_NE BOM_R34_SE BOM_R34_SW BOM_R34_NW BOM_R50_NE BOM_R50_SE BOM_R50_SW BOM_R50_NW BOM_R64_NE BOM_R64_SE BOM_R64_SW BOM_R64_NW BOM_ROCI BOM_POCI BOM_EYE BOM_POS_METHOD BOM_PRES_METHOD NADI_LAT NADI_LON NADI_CAT NADI_WIND NADI_PRES WELLINGTON_LAT WELLINGTON_LON WELLINGTON_WIND WELLINGTON_PRES DS824_LAT DS824_LON DS824_STAGE DS824_WIND DS824_PRES TD9636_LAT TD9636_LON TD9636_STAGE TD9636_WIND TD9636_PRES TD9635_LAT TD9635_LON TD9635_WIND TD9635_PRES TD9635_ROCI NEUMANN_LAT NEUMANN_LON NEUMANN_CLASS NEUMANN_WIND NEUMANN_PRES MLC_LAT MLC_LON MLC_CLASS MLC_WIND MLC_PRES USA_GUST BOM_GUST BOM_GUST_PER REUNION_GUST REUNION_GUST_PER USA_SEAHGT USA_SEARAD_NE USA_SEARAD_SE USA_SEARAD_SW USA_SEARAD_NW STORM_SPEED STORM_DIR
1916192N12308 1916 32 NA NA NOT_NAMED 1916-07-10 06:00:00 TS 11.5000 -52.1000 30 hurdat_atl main 668 651 O_____________ hurdat_atl AL031916 11.5000 -52.1000 TD 30 -1 11 269
1916192N12308 1916 32 NA NA NOT_NAMED 1916-07-10 09:00:00 TS 11.4902 -52.6400 main 651 636 P_____________ AL031916 11.4902 -52.6400 TD 30 -1 11 270
1916192N12308 1916 32 NA NA NOT_NAMED 1916-07-10 12:00:00 TS 11.5000 -53.2000 30 hurdat_atl main 636 628 O_____________ hurdat_atl AL031916 11.5000 -53.2000 TD 30 -1 11 273
1916192N12308 1916 32 NA NA NOT_NAMED 1916-07-10 15:00:00 TS 11.5424 -53.7925 main 628 628 P_____________ AL031916 11.5424 -53.7925 TD 30 -1 12 275
1916192N12308 1916 32 NA NA NOT_NAMED 1916-07-10 18:00:00 TS 11.6000 -54.4000 30 hurdat_atl main 638 595 O_____________ hurdat_atl AL031916 11.6000 -54.4000 TD 30 -1 12 275
1916192N12308 1916 32 NA NA NOT_NAMED 1916-07-10 21:00:00 TS 11.6499 -55.0075 main 595 557 P_____________ AL031916 11.6499 -55.0075 TD 30 -1 12 275
1916192N12308 1916 32 NA NA NOT_NAMED 1916-07-11 00:00:00 TS 11.7000 -55.6000 30 hurdat_atl main 557 522 O_____________ hurdat_atl AL031916 11.7000 -55.6000 TD 30 -1 11 275
1916192N12308 1916 32 NA NA NOT_NAMED 1916-07-11 03:00:00 TS 11.7424 -56.1576 main 515 485 P_____________ AL031916 11.7424 -56.1576 TD 30 -1 11 275
1916192N12308 1916 32 NA NA NOT_NAMED 1916-07-11 06:00:00 TS 11.8000 -56.7000 30 hurdat_atl main 485 435 O_____________ hurdat_atl AL031916 11.8000 -56.7000 TD 30 -1 11 277
1916192N12308 1916 32 NA NA NOT_NAMED 1916-07-11 09:00:00 TS 11.8774 -57.2576 main 425 378 P_____________ AL031916 11.8774 -57.2576 TD 30 -1 11 281
1916192N12308 1916 32 NA NA NOT_NAMED 1916-07-11 12:00:00 TS 12.0000 -57.8000 30 hurdat_atl main 378 333 O_____________ hurdat_atl AL031916 12.0000 -57.8000 TD 30 -1 11 286
1916192N12308 1916 32 NA NA NOT_NAMED 1916-07-11 15:00:00 TS 12.1699 -58.3076 main 339 306 P_____________ AL031916 12.1699 -58.3076 TD 30 -1 11 292
1916192N12308 1916 32 NA NA NOT_NAMED 1916-07-11 18:00:00 TS 12.4000 -58.8000 30 hurdat_atl main 306 289 O_____________ hurdat_atl AL031916 12.4000 -58.8000 TD 30 -1 11 298
1916192N12308 1916 32 NA NA NOT_NAMED 1916-07-11 21:00:00 TS 12.6774 -59.3001 main 290 283 P_____________ AL031916 12.6774 -59.3001 TD 32 -1 11 302
1916192N12308 1916 32 NA CS NOT_NAMED 1916-07-12 00:00:00 TS 13.0000 -59.8000 35 hurdat_atl main 288 284 O_____________ hurdat_atl AL031916 13.0000 -59.8000 TS 35 0 12 304
1916192N12308 1916 32 NA CS NOT_NAMED 1916-07-12 03:00:00 TS 13.3349 -60.3076 main 300 300 P_____________ AL031916 13.3349 -60.3076 TS 35 0 12 306
1916192N12308 1916 32 NA CS NOT_NAMED 1916-07-12 06:00:00 TS 13.7000 -60.8000 35 hurdat_atl main 336 336 O_____________ hurdat_atl AL031916 13.7000 -60.8000 TS 35 0 12 309
1916192N12308 1916 32 NA CS NOT_NAMED 1916-07-12 09:00:00 TS 14.0848 -61.2502 main 380 380 P_____________ AL031916 14.0848 -61.2502 TS 35 0 12 312
1916192N12308 1916 32 NA CS NOT_NAMED 1916-07-12 12:00:00 TS 14.5000 -61.7000 35 hurdat_atl main 425 425 O_____________ hurdat_atl AL031916 14.5000 -61.7000 TS 35 0 12 313
1916192N12308 1916 32 NA CS NOT_NAMED 1916-07-12 15:00:00 TS 14.9349 -62.1852 main 470 439 P_____________ AL031916 14.9349 -62.1852 TS 35 0 13 313
1916192N12308 1916 32 NA CS NOT_NAMED 1916-07-12 18:00:00 TS 15.4000 -62.7000 35 hurdat_atl main 439 362 O_____________ hurdat_atl AL031916 15.4000 -62.7000 TS 35 0 14 313
1916192N12308 1916 32 NA CS NOT_NAMED 1916-07-12 21:00:00 TS 15.8849 -63.2353 main 362 277 P_____________ AL031916 15.8849 -63.2353 TS 35 0 15 313
1916192N12308 1916 32 NA CS NOT_NAMED 1916-07-13 00:00:00 TS 16.4000 -63.8000 35 hurdat_atl main 277 192 O_____________ hurdat_atl AL031916 16.4000 -63.8000 TS 35 0 16 314
1916192N12308 1916 32 NA CS NOT_NAMED 1916-07-13 03:00:00 TS 16.9575 -64.4074 main 184 100 P_____________ AL031916 16.9575 -64.4074 TS 37 0 16 314
1916192N12308 1916 32 NA CS NOT_NAMED 1916-07-13 06:00:00 TS 17.5000 -65.0000 40 hurdat_atl main 100 24 O_____________ hurdat_atl AL031916 17.5000 -65.0000 TS 40 0 15 313
1916192N12308 1916 32 NA CS NOT_NAMED 1916-07-13 09:00:00 TS 17.9799 -65.5377 main 24 0 P_____________ AL031916 17.9799 -65.5377 TS 42 0 13 313
1916192N12308 1916 32 NA NA NOT_NAMED 1916-07-13 12:00:00 TS 18.4000 -66.0000 45 hurdat_atl main 0 0 O_____________ hurdat_atl AL031916 18.4000 -66.0000 TS 45 0 11 314
1916192N12308 1916 32 NA NA NOT_NAMED 1916-07-13 15:00:00 TS 18.7724 -66.3877 main 44 44 P_____________ AL031916 18.7724 -66.3877 TS 45 0 10 317
1916192N12308 1916 32 NA NA NOT_NAMED 1916-07-13 18:00:00 TS 19.1000 -66.7000 45 hurdat_atl main 78 78 O_____________ hurdat_atl AL031916 19.1000 -66.7000 TS 45 0 8 319
1916192N12308 1916 32 NA NA NOT_NAMED 1916-07-13 21:00:00 TS 19.4074 -66.9727 main 111 111 P_____________ AL031916 19.4074 -66.9727 TS 47 0 8 322
1916192N12308 1916 32 NA NA NOT_NAMED 1916-07-14 00:00:00 TS 19.7000 -67.2000 50 hurdat_atl main 145 145 O_____________ hurdat_atl AL031916 19.7000 -67.2000 TS 50 0 7 326
1916192N12308 1916 32 NA NA NOT_NAMED 1916-07-14 03:00:00 TS 20.0075 -67.4076 main 179 179 P_____________ AL031916 20.0075 -67.4076 TS 50 0 7 328
1916192N12308 1916 32 NA NA NOT_NAMED 1916-07-14 06:00:00 TS 20.3000 -67.6000 50 hurdat_atl main 197 197 O_____________ hurdat_atl AL031916 20.3000 -67.6000 TS 50 0 7 326
1916192N12308 1916 32 NA NA NOT_NAMED 1916-07-14 09:00:00 TS 20.5575 -67.8076 main 213 206 P_____________ AL031916 20.5575 -67.8076 TS 52 0 6 323
1916192N12308 1916 32 NA NA NOT_NAMED 1916-07-14 12:00:00 TS 20.8000 -68.0000 55 hurdat_atl main 215 215 O_____________ hurdat_atl AL031916 20.8000 -68.0000 TS 55 0 6 326
1916192N12308 1916 32 NA NA NOT_NAMED 1916-07-14 15:00:00 TS 21.0575 -68.1650 main 231 231 P_____________ AL031916 21.0575 -68.1650 TS 57 0 6 331
1916192N12308 1916 32 NA NA NOT_NAMED 1916-07-14 18:00:00 TS 21.3000 -68.3000 60 hurdat_atl main 246 246 O_____________ hurdat_atl AL031916 21.3000 -68.3000 TS 60 0 5 333
1916192N12308 1916 32 NA NA NOT_NAMED 1916-07-14 21:00:00 TS 21.5075 -68.4150 main 263 263 P_____________ AL031916 21.5075 -68.4150 TS 62 0 4 335
1916192N12308 1916 32 NA NA NOT_NAMED 1916-07-15 00:00:00 TS 21.7000 -68.5000 65 hurdat_atl main 281 281 O_____________ hurdat_atl AL031916 21.7000 -68.5000 HU 65 1 4 342
1916192N12308 1916 32 NA NA NOT_NAMED 1916-07-15 03:00:00 TS 21.9000 -68.5575 main 295 295 P_____________ AL031916 21.9000 -68.5575 HU 67 1 4 348
1916192N12308 1916 32 NA NA NOT_NAMED 1916-07-15 06:00:00 TS 22.1000 -68.6000 70 hurdat_atl main 315 315 O_____________ hurdat_atl AL031916 22.1000 -68.6000 HU 70 1 4 348
1916192N12308 1916 32 NA NA NOT_NAMED 1916-07-15 09:00:00 TS 22.3000 -68.6500 main 330 330 P_____________ AL031916 22.3000 -68.6500 HU 72 1 4 348
1916192N12308 1916 32 NA NA NOT_NAMED 1916-07-15 12:00:00 TS 22.5000 -68.7000 75 hurdat_atl main 351 351 O_____________ hurdat_atl AL031916 22.5000 -68.7000 HU 75 1 4 348
1916192N12308 1916 32 NA NA NOT_NAMED 1916-07-15 15:00:00 TS 22.7075 -68.7425 main 371 368 P_____________ AL031916 22.7075 -68.7425 HU 75 1 4 348
1916192N12308 1916 32 NA NA NOT_NAMED 1916-07-15 18:00:00 TS 22.9000 -68.8000 75 hurdat_atl main 389 389 O_____________ hurdat_atl AL031916 22.9000 -68.8000 HU 75 1 4 339
1916192N12308 1916 32 NA NA NOT_NAMED 1916-07-15 21:00:00 TS 23.0575 -68.8925 main 407 404 P_____________ AL031916 23.0575 -68.8925 HU 77 1 4 329
1916192N12308 1916 32 NA NA NOT_NAMED 1916-07-16 00:00:00 TS 23.2000 -69.0000 80 hurdat_atl main 414 414 O_____________ hurdat_atl AL031916 23.2000 -69.0000 HU 80 1 3 327
1916192N12308 1916 32 NA NA NOT_NAMED 1916-07-16 03:00:00 TS 23.3500 -69.0925 main 420 420 P_____________ AL031916 23.3500 -69.0925 HU 82 1 4 329
1916192N12308 1916 32 NA NA NOT_NAMED 1916-07-16 06:00:00 TS 23.5000 -69.2000 85 hurdat_atl main 438 438 O_____________ hurdat_atl AL031916 23.5000 -69.2000 HU 85 2 4 325
1916192N12308 1916 32 NA NA NOT_NAMED 1916-07-16 09:00:00 TS 23.6574 -69.3275 main 456 453 P_____________ AL031916 23.6574 -69.3275 HU 87 2 4 318
1916192N12308 1916 32 NA NA NOT_NAMED 1916-07-16 12:00:00 TS 23.8000 -69.5000 90 hurdat_atl main 461 453 O_____________ hurdat_atl AL031916 23.8000 -69.5000 HU 90 2 4 304
1916192N12308 1916 32 NA NA NOT_NAMED 1916-07-16 15:00:00 TS 23.9075 -69.7350 main 453 438 P_____________ AL031916 23.9075 -69.7350 HU 90 2 5 294
1916192N12308 1916 32 NA NA NOT_NAMED 1916-07-16 18:00:00 TS 24.0000 -70.0000 90 hurdat_atl main 438 424 O_____________ hurdat_atl AL031916 24.0000 -70.0000 HU 90 2 5 291
1916192N12308 1916 32 NA NA NOT_NAMED 1916-07-16 21:00:00 TS 24.0850 -70.2501 main 426 419 P_____________ AL031916 24.0850 -70.2501 HU 90 2 5 294
1916192N12308 1916 32 NA NA NOT_NAMED 1916-07-17 00:00:00 TS 24.2000 -70.5000 90 hurdat_atl main 422 415 O_____________ hurdat_atl AL031916 24.2000 -70.5000 HU 90 2 5 301
1916192N12308 1916 32 NA NA NOT_NAMED 1916-07-17 03:00:00 TS 24.3625 -70.7501 main 422 422 P_____________ AL031916 24.3625 -70.7501 HU 90 2 6 311
1916192N12308 1916 32 NA NA NOT_NAMED 1916-07-17 06:00:00 TS 24.6000 -71.0000 90 hurdat_atl main 431 431 O_____________ hurdat_atl AL031916 24.6000 -71.0000 HU 90 2 7 320
1916192N12308 1916 32 NA NA NOT_NAMED 1916-07-17 09:00:00 TS 24.9200 -71.2575 main 448 448 P_____________ AL031916 24.9200 -71.2575 HU 90 2 8 327
1916192N12308 1916 32 NA NA NOT_NAMED 1916-07-17 12:00:00 TS 25.3000 -71.5000 90 hurdat_atl main 483 483 O_____________ hurdat_atl AL031916 25.3000 -71.5000 HU 90 2 9 332
1916192N12308 1916 32 NA NA NOT_NAMED 1916-07-17 15:00:00 TS 25.6850 -71.7151 main 520 520 P_____________ AL031916 25.6850 -71.7151 HU 90 2 9 336
1916192N12308 1916 32 NA NA NOT_NAMED 1916-07-17 18:00:00 TS 26.1000 -71.9000 90 hurdat_atl main 558 558 O_____________ hurdat_atl AL031916 26.1000 -71.9000 HU 90 2 9 340
1916192N12308 1916 32 NA NA NOT_NAMED 1916-07-17 21:00:00 TS 26.5350 -72.0577 main 599 599 P_____________ AL031916 26.5350 -72.0577 HU 90 2 9 343
1916192N12308 1916 32 NA NA NOT_NAMED 1916-07-18 00:00:00 TS 27.0000 -72.2000 90 hurdat_atl main 615 614 O_____________ hurdat_atl AL031916 27.0000 -72.2000 HU 90 2 10 345
1916192N12308 1916 32 NA NA NOT_NAMED 1916-07-18 03:00:00 TS 27.4850 -72.3501 main 618 618 P_____________ AL031916 27.4850 -72.3501 HU 87 2 10 345
1916192N12308 1916 32 NA NA NOT_NAMED 1916-07-18 06:00:00 TS 28.0000 -72.5000 85 hurdat_atl main 635 635 O_____________ hurdat_atl AL031916 28.0000 -72.5000 HU 85 2 11 346
1916192N12308 1916 32 NA NA NOT_NAMED 1916-07-18 09:00:00 TS 28.5425 -72.6575 main 648 648 P_____________ AL031916 28.5425 -72.6575 HU 85 2 11 347
1916192N12308 1916 32 NA NA NOT_NAMED 1916-07-18 12:00:00 TS 29.1000 -72.8000 85 hurdat_atl main 680 661 O_____________ hurdat_atl AL031916 29.1000 -72.8000 HU 85 2 11 349
1916192N12308 1916 32 NA NA NOT_NAMED 1916-07-18 15:00:00 TS 29.6575 -72.9077 main 652 599 P_____________ AL031916 29.6575 -72.9077 HU 82 1 11 351
1916192N12308 1916 32 NA NA NOT_NAMED 1916-07-18 18:00:00 TS 30.2000 -73.0000 80 hurdat_atl main 599 547 O_____________ hurdat_atl AL031916 30.2000 -73.0000 HU 80 1 11 351
1916192N12308 1916 32 NA NA NOT_NAMED 1916-07-18 21:00:00 TS 30.7075 -73.1075 main 547 496 P_____________ AL031916 30.7075 -73.1075 HU 80 1 10 350
1916192N12308 1916 32 NA NA NOT_NAMED 1916-07-19 00:00:00 TS 31.2000 -73.2000 80 hurdat_atl main 496 447 O_____________ hurdat_atl AL031916 31.2000 -73.2000 HU 80 1 10 352
1916192N12308 1916 32 NA NA NOT_NAMED 1916-07-19 03:00:00 TS 31.7000 -73.2651 main 447 406 P_____________ AL031916 31.7000 -73.2650 HU 77 1 10 355
1916192N12308 1916 32 NA NA NOT_NAMED 1916-07-19 06:00:00 TS 32.2000 -73.3000 75 980 hurdat_atl main 406 369 O_____________ hurdat_atl AL031916 32.2000 -73.3000 HU 75 980 1 10 357
1916192N12308 1916 32 NA NA NOT_NAMED 1916-07-19 09:00:00 TS 32.7075 -73.3224 main 369 334 P_____________ AL031916 32.7075 -73.3224 HU 75 1 10 1
1916192N12308 1916 32 NA NA NOT_NAMED 1916-07-19 12:00:00 TS 33.2000 -73.3000 75 hurdat_atl main 334 316 O_____________ hurdat_atl AL031916 33.2000 -73.3000 HU 75 1 10 5
1916192N12308 1916 32 NA NA NOT_NAMED 1916-07-19 15:00:00 TS 33.6650 -73.2151 main 311 289 P_____________ AL031916 33.6650 -73.2151 HU 75 1 9 10
1916192N12308 1916 32 NA NA NOT_NAMED 1916-07-19 18:00:00 TS 34.1000 -73.1000 75 hurdat_atl main 289 269 O_____________ hurdat_atl AL031916 34.1000 -73.1000 HU 75 1 9 12
1916192N12308 1916 32 NA NA NOT_NAMED 1916-07-19 21:00:00 TS 34.5075 -72.9999 main 269 255 P_____________ AL031916 34.5075 -72.9999 HU 75 1 8 12
1916192N12308 1916 32 NA NA NOT_NAMED 1916-07-20 00:00:00 TS 34.9000 -72.9000 75 hurdat_atl main 255 247 O_____________ hurdat_atl AL031916 34.9000 -72.9000 HU 75 1 8 12
1916192N12308 1916 32 NA NA NOT_NAMED 1916-07-20 03:00:00 TS 35.2925 -72.7999 main 249 245 P_____________ AL031916 35.2925 -72.7999 HU 75 1 8 12
1916192N12308 1916 32 NA NA NOT_NAMED 1916-07-20 06:00:00 TS 35.7000 -72.7000 75 hurdat_atl main 252 251 O_____________ hurdat_atl AL031916 35.7000 -72.7000 HU 75 1 9 11
1916192N12308 1916 32 NA NA NOT_NAMED 1916-07-20 09:00:00 TS 36.1350 -72.5999 main 262 262 P_____________ AL031916 36.1350 -72.5999 HU 75 1 9 10
1916192N12308 1916 32 NA NA NOT_NAMED 1916-07-20 12:00:00 TS 36.6000 -72.5000 75 hurdat_atl main 282 277 O_____________ hurdat_atl AL031916 36.6000 -72.5000 HU 75 1 10 9
1916192N12308 1916 32 NA NA NOT_NAMED 1916-07-20 15:00:00 TS 37.0775 -72.3998 main 271 256 P_____________ AL031916 37.0775 -72.3998 HU 75 1 10 9
1916192N12308 1916 32 NA NA NOT_NAMED 1916-07-20 18:00:00 TS 37.6000 -72.3000 75 hurdat_atl main 256 231 O_____________ hurdat_atl AL031916 37.6000 -72.3000 HU 75 1 11 8
1916192N12308 1916 32 NA NA NOT_NAMED 1916-07-20 21:00:00 TS 38.1925 -72.2072 main 231 204 P_____________ AL031916 38.1925 -72.2072 HU 72 1 12 8
1916192N12308 1916 32 NA NA NOT_NAMED 1916-07-21 00:00:00 TS 38.8000 -72.1000 70 hurdat_atl main 204 174 O_____________ hurdat_atl AL031916 38.8000 -72.1000 HU 70 1 12 9
1916192N12308 1916 32 NA NA NOT_NAMED 1916-07-21 03:00:00 TS 39.3500 -71.9647 main 174 120 P_____________ AL031916 39.3500 -71.9647 HU 67 1 11 12
1916192N12308 1916 32 NA NA NOT_NAMED 1916-07-21 06:00:00 TS 39.9000 -71.8000 65 hurdat_atl main 120 87 O_____________ hurdat_atl AL031916 39.9000 -71.8000 HU 65 1 11 10
1916192N12308 1916 32 NA NA NOT_NAMED 1916-07-21 09:00:00 TS 40.4126 -71.7121 main 87 34 P_____________ AL031916 40.4126 -71.7121 HU 62 0 12 14
1916192N12308 1916 32 NA NA NOT_NAMED 1916-07-21 12:00:00 TS 41.1000 -71.4000 60 993 hurdat_atl main 34 20 O_____________ hurdat_atl AL031916 41.1000 -71.4000 TS 60 993 0 16 21
1916192N12308 1916 32 NA NA NOT_NAMED 1916-07-21 13:00:00 TS 41.4000 -71.2000 60 993 hurdat_atl main 11 0 O_____________ hurdat_atl AL031916 41.4000 -71.2000 L TS 60 993 0 20 22
1916192N12308 1916 32 NA NA NOT_NAMED 1916-07-21 15:00:00 TS 42.0331 -70.8876 main 0 0 P_____________ AL031916 42.0331 -70.8876 TS 53 996 0 20 20
1916192N12308 1916 32 NA NA NOT_NAMED 1916-07-21 18:00:00 TS 43.0000 -70.4000 45 1001 hurdat_atl main 32 0 O_____________ hurdat_atl AL031916 43.0000 -70.4000 TS 45 1001 0 20 29
1916192N12308 1916 32 NA NA NOT_NAMED 1916-07-21 21:00:00 TS 43.8305 -69.5458 main 0 0 P_____________ AL031916 43.8305 -69.5458 TS 42 0 22 40
1916192N12308 1916 32 NA NA NOT_NAMED 1916-07-22 00:00:00 TS 44.7000 -68.4000 40 hurdat_atl main 0 0 O_____________ hurdat_atl AL031916 44.7000 -68.4000 TS 40 0 26 42
1916192N12308 1916 32 NA NA NOT_NAMED 1916-07-22 03:00:00 TS 45.8053 -67.0854 main 0 0 P_____________ AL031916 45.8053 -67.0854 TS 37 0 30 43
1916192N12308 1916 32 NA NA NOT_NAMED 1916-07-22 06:00:00 TS 46.9000 -65.5000 35 hurdat_atl main 0 0 O_____________ hurdat_atl AL031916 46.9000 -65.5000 TS 35 0 29 51
1916192N12308 1916 32 NA NA NOT_NAMED 1916-07-22 09:00:00 TS 47.6722 -63.7504 main 67 67 P_____________ AL031916 47.6722 -63.7504 TS 32 -1 30 58
1916192N12308 1916 32 NA NA NOT_NAMED 1916-07-22 12:00:00 ET 48.5000 -61.7000 30 hurdat_atl main 66 53 O_____________ hurdat_atl AL031916 48.5000 -61.7000 EX 30 -4 36 56
1916192N12308 1916 32 NA NA NOT_NAMED 1916-07-22 15:00:00 ET 49.6602 -59.2611 main 75 0 P_____________ AL031916 49.6602 -59.2611 EX 30 -4 42 53
1916192N12308 1916 32 NA NA NOT_NAMED 1916-07-22 18:00:00 ET 51.0000 -56.5000 30 hurdat_atl main 0 O_____________ hurdat_atl AL031916 51.0000 -56.5000 EX 30 -4 44 52

About IBTrACS Database

This database is a web-friendly format of International Best Track Archive for Climate Stewardship (IBTrACS), a global best track data archive curated by NOAA dating back to 1842.

Updated: 2021-12-08